EEKE

Details ICAO EEKE (URE)
Name KURESSAARE
Region Estonia
Timezone Europe/Tallinn (UTC+2.0)
Plans Departing 7
Arriving 7
Stats Elevation 14 ft / 4 m (AMSL)
Location 58.230459° 22.511240°
Runways 2
Magnetic Variation 7.492° E
Sunrise 2017-12-13 07:10:54 UTC / 2017-12-13 09:10:54 Local
Sunset 2017-12-13 13:40:11 UTC / 2017-12-13 15:40:11 Local
Advertisement - Login to hide

Runways

ID Width Length Bearing (true) Bearing (mag) Surface Threshold Offset Overrun Length
05 98 ft / 30 m 2,615 ft / 797 m 58.67° 51.18° Asphalt 0 ft / 0 m 197 ft / 60 m
17 98 ft / 30 m 4,973 ft / 1,516 m 179.57° 172.08° Asphalt 0 ft / 0 m 197 ft / 60 m
23 98 ft / 30 m 2,615 ft / 797 m 238.68° 231.19° Asphalt 0 ft / 0 m 197 ft / 60 m
35 98 ft / 30 m 4,973 ft / 1,516 m 359.58° 352.09° Asphalt 0 ft / 0 m 197 ft / 60 m

Map

Weather


0- 5 10 15 20 25 30 35+ Temperature / ° C

Clouds and Precipitation
Forecast for 2017-12-13 06:00 UTC. Updated 31 minutes ago

Ground ~20,000 ft ~40,000 ft Winds

METAR

EEKE 130133Z AUTO 29007KT 240V340 9999NDV -SN SCT008 BKN012 OVC037 01/01 Q0995

TAF

Not found

Frequencies

Tower 118.05 MHz TWR
Warning: Do not use this data for real-world aviation or navigation. No guarantee of current accuracy is given.